Flight Track Log - Related Links

Times and Time Zones

All times are in EDT time to prevent confusion due to time zone crossing. See the RPA3275 flight status page for this flight to view local times or setup timezone preferences in your user account.

Time Position Orientation Groundspeed Altitude Reporting Facility
EDT Latitude Longitude Course Direction KTS MPH feet Rate Location/Type
Sun 07:20:43 AM 42.7278 -73.8081 220° Southwest 141 162 1,600  Level Boston Center
Sun 07:21:50 AM 42.7125 -73.8614 249° West 214 246 3,700 1,862 Climbing Boston Center
Sun 07:22:00 AM 42.7333 -74.2994 270° West  Level FlightAware Approximate
Sun 07:22:10 AM 42.7142 -73.8925 274° West 217 250 4,300  Level Boston Center
Sun 07:23:00 AM 42.6456 -74.4133 220° Southwest  Level FlightAware Approximate
Sun 07:23:10 AM 42.7214 -73.9692 277° West 234 269 6,200  Level Boston Center
Sun 07:24:00 AM 42.5529 -74.5214 223° Southwest  Level FlightAware Approximate
Sun 07:24:10 AM 42.7161 -74.0650 266° West 252 290 9,400  Level Boston Center
Sun 07:25:00 AM 42.4814 -74.6065 220° Southwest  Level FlightAware Approximate
Sun 07:25:10 AM 42.6583 -74.1594 230° Southwest 252 290 12,000  Level Boston Center
Sun 07:26:10 AM 42.6111 -74.2428 232° Southwest 285 328 14,200 2,050 Climbing Boston Center
Sun 07:27:10 AM 42.5533 -74.3369 230° Southwest 317 365 16,100 1,300 Climbing Boston Center
Sun 07:28:10 AM 42.4956 -74.4308 230° Southwest 325 374 16,800 1,200 Climbing Boston Center
Sun 07:29:10 AM 42.4250 -74.5328 227° Southwest 361 415 18,500 754 Climbing Boston Center
Sun 07:31:05 AM 42.2867 -74.7175 225° Southwest 373 429 19,000 171 Climbing New York Center
Sun 07:32:05 AM 42.2192 -74.8058 224° Southwest 373 429 19,000  Level New York Center
Sun 07:33:04 AM 42.1450 -74.9019 224° Southwest 373 429 19,000  Level New York Center
Sun 07:34:04 AM 42.0642 -75.0086 224° Southwest 373 429 19,000  Level New York Center
Sun 07:35:05 AM 41.9922 -75.1017 224° Southwest 366 421 19,000  Level New York Center
Sun 07:36:06 AM 41.9253 -75.1669 216° Southwest 347 399 19,000  Level New York Center
Sun 07:37:04 AM 41.8372 -75.2392 211° Southwest 334 384 19,000 -712 Level New York Center
Sun 07:38:04 AM 41.7600 -75.3006 211° Southwest 334 384 17,600 -1,500 Descending New York Center
Sun 07:39:04 AM 41.6825 -75.3647 212° Southwest 334 384 16,000 -1,525 Descending New York Center
Sun 07:40:06 AM 41.6158 -75.4158 210° Southwest 328 377 14,500 -1,550 Descending New York Center
Sun 07:41:04 AM 41.5450 -75.4744 212° Southwest 322 371 12,900 -1,271 Descending New York Center
Sun 07:42:04 AM 41.4675 -75.5356 211° Southwest 310 357 12,000 -446 Descending New York Center
Sun 07:43:05 AM 41.3967 -75.5914 211° Southwest 305 351 12,000  Level New York Center
Sun 07:44:06 AM 41.3319 -75.6447 212° Southwest 305 351 12,000  Level New York Center
Sun 07:45:05 AM 41.2508 -75.6914 203° Southwest 305 351 12,000  Level New York Center
Sun 07:46:04 AM 41.1764 -75.6750 171° South 292 336 12,000  Level New York Center
Sun 07:47:06 AM 41.0839 -75.6433 166° South 307 353 12,000  Level New York Center
Sun 07:48:04 AM 41.0183 -75.6222 166° South 307 353 12,000  Level New York Center
Sun 07:49:04 AM 40.9278 -75.5911 165° South 312 359 12,000  Level New York Center
Sun 07:50:05 AM 40.8372 -75.5628 167° South 312 359 12,000  Level New York Center
Sun 07:51:05 AM 40.7550 -75.5350 166° South 312 359 12,000 -397 Level New York Center
Sun 07:52:06 AM 40.6792 -75.5078 165° South 312 359 11,200 -864 Descending New York Center
Sun 07:53:03 AM 40.5969 -75.4803 166° South 312 359 10,300 -610 Descending New York Center
Sun 07:54:04 AM 40.5167 -75.4556 167° South 312 359 10,000 -198 Descending New York Center
Sun 07:55:04 AM 40.4386 -75.4258 164° South 290 334 9,900 -645 Descending New York Center
Sun 07:56:05 AM 40.3856 -75.3950 156° South 245 282 8,700 -984 Descending New York Center
Sun 07:57:06 AM 40.3231 -75.3936 179° South 225 259 7,900 -397 Descending New York Center
Sun 07:58:06 AM 40.2561 -75.3972 182° South 219 252 7,900 51 Level New York Center
Sun 07:59:04 AM 40.2039 -75.4044 186° South 214 246 8,000 -559 Climbing New York Center
Sun 08:00:04 AM 40.1433 -75.4086 183° South 214 246 6,800 -1,000 Descending New York Center
Sun 08:01:04 AM 40.1075 -75.3628 136° Southeast 186 214 6,000 -558 Descending New York Center
Sun 08:01:30 AM 40.1000 -75.3167 102° East 225 259 6,000  Level Philadelphia TRACON
Sun 08:02:30 AM 40.0667 -75.2500 123° Southeast 225 259 6,000  Level Philadelphia TRACON
Sun 08:03:30 AM 40.0333 -75.2000 131° Southeast 196 226 6,000  Level Philadelphia TRACON
Sun 08:04:30 AM 39.9833 -75.1667 153° Southeast 216 249 6,000  Level Philadelphia TRACON
Sun 08:05:30 AM 40.0000 -75.0833 75° East 242 278 6,000 -500 Level Philadelphia TRACON
Sun 08:06:30 AM 40.0167 -75.0000 75° East 234 269 5,000 -500 Descending Philadelphia TRACON
Sun 08:07:30 AM 39.9833 -74.9333 123° Southeast 184 212 5,000 -737 Level Philadelphia TRACON
Sun 08:08:24 AM 39.9667 -74.9667 237° Southwest 174 200 3,600 -1,000 Descending Philadelphia TRACON
Sun 08:09:30 AM 39.9167 -75.0167 217° Southwest 160 184 3,000 -571 Descending Philadelphia TRACON
Sun 08:10:30 AM 39.9000 -75.0667 247° West 162 186 2,400 -714 Descending Philadelphia TRACON
Sun 08:11:36 AM 39.9000 -75.1333 270° West 162 186 1,500 -762 Descending Philadelphia TRACON
Sun 08:12:36 AM 39.8833 -75.1833 247° West 120 138 800 -684 Descending Philadelphia TRACON
Sun 08:13:30 AM 39.8833 -75.2167 270° West 128 147 200 -667 Descending Philadelphia TRACON

Login

Don't have an account? Register now (free) for customized features, flight alerts, and more!